MSC Cordoba — A8OF8 — position and weather

sailwx.info

Track history (hours):
 
Tides and Currents Weather Stations Pressure Air Temp Water Temp Dewpoint Dewpoint Depression Visibility Wind Speed Wind Dir Waves Ship Positions

MSC Cordoba

Last reported at 2015-Feb-26 12:28 UTC. Time now 2015-Feb-28 17:28 UTC.
Position N 40°26' E 029°03'.

Length 274 m; draft 9.9 m.

Type: Ship (hazmat cat A). MMSI: 636091473.

Date/timePositionNaut miles runAvg speedWind from/ knotsBaromVisibWave heightAir tempDewpointWater temp
2015-Feb-26 12:28N 40°26' E 029°03'1515.2
2015-Feb-26 11:30N 40°30' E 028°44'1919.7
2015-Feb-26 10:32N 40°49' E 028°41'8 0.3
2015-Feb-25 05:09N 40°57' E 028°41'4 6.2
2015-Feb-25 04:33N 40°53' E 028°41'7 3.2
2015-Feb-25 02:30N 40°46' E 028°41'0 0.3
2015-Feb-25 01:33N 40°46' E 028°41'0 0.3
2015-Feb-25 00:31N 40°46' E 028°41'0 0.2
2015-Feb-24 23:33N 40°46' E 028°41'2 2.3
2015-Feb-24 22:32N 40°48' E 028°40'1 0.6
2015-Feb-24 21:32N 40°47' E 028°39'611.0
2015-Feb-24 21:00N 40°42' E 028°36'512.5 130 / 101008.010.8 16.0 2.8 8.0
2015-Feb-24 20:33N 40°47' E 028°39'0 0.4
2015-Feb-24 19:33N 40°46' E 028°40'0 0.4
2015-Feb-24 18:33N 40°46' E 028°40'0 0.4
2015-Feb-24 17:33N 40°46' E 028°41'4 3.2
2015-Feb-24 16:16N 40°44' E 028°45'1014.3
2015-Feb-24 15:33N 40°44' E 028°58'1717.2
2015-Feb-24 14:33N 40°44' E 029°21'9 8.2
2015-Feb-24 13:30N 40°46' E 029°32'0 0.3
2015-Feb-24 12:30N 40°46' E 029°32'0 0.0
2015-Feb-24 11:30N 40°46' E 029°32'0 0.0
2015-Feb-24 10:29N 40°46' E 029°32'0 0.0
2015-Feb-24 09:29N 40°46' E 029°32'0 0.0
2015-Feb-24 08:28N 40°46' E 029°32'0 0.0
2015-Feb-24 07:28N 40°46' E 029°32'0 0.0
2015-Feb-24 06:28N 40°46' E 029°32'0 0.0
2015-Feb-24 05:33N 40°46' E 029°32'0 0.0
2015-Feb-24 04:21N 40°46' E 029°32'0 0.0
2015-Feb-24 03:32N 40°46' E 029°32'0 0.0
2015-Feb-24 02:32N 40°46' E 029°32'0 0.0
2015-Feb-24 01:31N 40°46' E 029°32'0 0.0
2015-Feb-24 00:31N 40°46' E 029°32'0 0.0
2015-Feb-23 23:18N 40°46' E 029°32'0 0.0
2015-Feb-23 22:30N 40°46' E 029°32'0 0.0
2015-Feb-23 21:30N 40°46' E 029°32'0 0.0
2015-Feb-23 20:29N 40°46' E 029°32'0 0.0
2015-Feb-23 19:23N 40°46' E 029°32'0 0.0
2015-Feb-23 18:28N 40°46' E 029°32'0 0.0
2015-Feb-23 17:28N 40°46' E 029°32'0 0.0
2015-Feb-23 16:21N 40°46' E 029°32'0 0.0
2015-Feb-23 15:33N 40°46' E 029°32'0 0.0
2015-Feb-23 14:27N 40°46' E 029°32'0 0.0
2015-Feb-23 13:32N 40°46' E 029°32'0 0.0
2015-Feb-23 12:32N 40°46' E 029°32'0 0.0
2015-Feb-23 11:31N 40°46' E 029°32'0 0.0
2015-Feb-23 10:19N 40°46' E 029°32'0 0.0
2015-Feb-23 09:31N 40°46' E 029°32'6 6.0
2015-Feb-23 08:32N 40°44' E 029°25'1211.9
2015-Feb-23 07:33N 40°44' E 029°09'23116.0
2015-Feb-22 17:05N 38°35' E 024°60'4221.5
2015-Feb-22 15:09N 37°57' E 024°38'1521.2
2015-Feb-22 14:27N 37°43' E 024°33'1920.9
2015-Feb-22 13:32N 37°27' E 024°19'47419.7
2015-Feb-21 13:33N 36°30' E 014°31'2020.6
2015-Feb-21 12:33N 36°36' E 014°07'2120.5
2015-Feb-21 11:33N 36°42' E 013°42'30120.6
2015-Feb-20 21:00N 37°30' E 007°30'49520.6 140 / 281016.010.8 0.520.0-2.515.0
2015-Feb-19 21:00N 36°18' W 002°42'12419.2 070 / 351024.010.8 1.515.0 4.214.0
2015-Feb-19 14:33N 35°60' W 005°14'15118.7
2015-Feb-19 06:28N 36°21' W 008°20'2320.8
2015-Feb-19 05:23N 36°27' W 008°47'7118.6
2015-Feb-19 01:33N 37°22' W 009°44'2221.7
2015-Feb-19 00:33N 37°43' W 009°50'2321.6
2015-Feb-18 23:28N 38°06' W 009°57'2821.8
2015-Feb-18 22:10N 38°33' W 010°04'1321.5
2015-Feb-18 21:33N 38°47' W 010°06'81118.3
2015-Feb-17 01:07N 50°26' W 000°29'1818.6
2015-Feb-17 00:10N 50°31' W 000°02'1218.4
2015-Feb-16 23:30N 50°35' E 000°16'1617.3
2015-Feb-16 22:33N 50°41' E 000°40'1716.5
2015-Feb-16 21:33N 50°51' E 001°01'814.0
2015-Feb-16 21:00N 50°54' E 001°12'919.1 190 / 131018.0 2.2 0.511.0 3.0 7.0
2015-Feb-16 20:31N 51°01' E 001°21'1717.2
2015-Feb-16 19:33N 51°11' E 001°41'1818.2
2015-Feb-16 18:33N 51°25' E 002°02'1717.2
2015-Feb-16 17:33N 51°22' E 002°29'1514.7
2015-Feb-16 16:33N 51°25' E 002°52'1514.9
2015-Feb-16 15:33N 51°25' E 003°16'1313.3
2015-Feb-16 14:33N 51°26' E 003°37'1211.8
2015-Feb-16 13:33N 51°22' E 003°55'8 8.3
2015-Feb-16 12:33N 51°22' E 004°08'  
Track history (hours):
 
Tides and Currents Weather Stations Pressure Air Temp Water Temp Dewpoint Dewpoint Depression Visibility Wind Speed Wind Dir Waves Ship Positions

MSC Cordoba

Last reported at 2015-Feb-26 12:28 UTC. Time now 2015-Feb-28 17:28 UTC.
Position N 40°26' E 029°03'.

Length 274 m; draft 9.9 m.

Type: Ship (hazmat cat A). MMSI: 636091473.

Date/timePositionNaut miles runAvg speedWind from/ knotsBaromVisibWave heightAir tempDewpointWater temp
2015-Feb-26 12:28N 40°26' E 029°03'1515.2
2015-Feb-26 11:30N 40°30' E 028°44'1919.7
2015-Feb-26 10:32N 40°49' E 028°41'8 0.3
2015-Feb-25 05:09N 40°57' E 028°41'4 6.2
2015-Feb-25 04:33N 40°53' E 028°41'7 3.2
2015-Feb-25 02:30N 40°46' E 028°41'0 0.3
2015-Feb-25 01:33N 40°46' E 028°41'0 0.3
2015-Feb-25 00:31N 40°46' E 028°41'0 0.2
2015-Feb-24 23:33N 40°46' E 028°41'2 2.3
2015-Feb-24 22:32N 40°48' E 028°40'1 0.6
2015-Feb-24 21:32N 40°47' E 028°39'611.0
2015-Feb-24 21:00N 40°42' E 028°36'512.5 130 / 101008.010.8 16.0 2.8 8.0
2015-Feb-24 20:33N 40°47' E 028°39'0 0.4
2015-Feb-24 19:33N 40°46' E 028°40'0 0.4
2015-Feb-24 18:33N 40°46' E 028°40'0 0.4
2015-Feb-24 17:33N 40°46' E 028°41'4 3.2
2015-Feb-24 16:16N 40°44' E 028°45'1014.3
2015-Feb-24 15:33N 40°44' E 028°58'1717.2
2015-Feb-24 14:33N 40°44' E 029°21'9 8.2
2015-Feb-24 13:30N 40°46' E 029°32'0 0.3
2015-Feb-24 12:30N 40°46' E 029°32'0 0.0
2015-Feb-24 11:30N 40°46' E 029°32'0 0.0
2015-Feb-24 10:29N 40°46' E 029°32'0 0.0
2015-Feb-24 09:29N 40°46' E 029°32'0 0.0
2015-Feb-24 08:28N 40°46' E 029°32'0 0.0
2015-Feb-24 07:28N 40°46' E 029°32'0 0.0
2015-Feb-24 06:28N 40°46' E 029°32'0 0.0
2015-Feb-24 05:33N 40°46' E 029°32'0 0.0
2015-Feb-24 04:21N 40°46' E 029°32'0 0.0
2015-Feb-24 03:32N 40°46' E 029°32'0 0.0
2015-Feb-24 02:32N 40°46' E 029°32'0 0.0
2015-Feb-24 01:31N 40°46' E 029°32'0 0.0
2015-Feb-24 00:31N 40°46' E 029°32'0 0.0
2015-Feb-23 23:18N 40°46' E 029°32'0 0.0
2015-Feb-23 22:30N 40°46' E 029°32'0 0.0
2015-Feb-23 21:30N 40°46' E 029°32'0 0.0
2015-Feb-23 20:29N 40°46' E 029°32'0 0.0
2015-Feb-23 19:23N 40°46' E 029°32'0 0.0
2015-Feb-23 18:28N 40°46' E 029°32'0 0.0
2015-Feb-23 17:28N 40°46' E 029°32'0 0.0
2015-Feb-23 16:21N 40°46' E 029°32'0 0.0
2015-Feb-23 15:33N 40°46' E 029°32'0 0.0
2015-Feb-23 14:27N 40°46' E 029°32'0 0.0
2015-Feb-23 13:32N 40°46' E 029°32'0 0.0
2015-Feb-23 12:32N 40°46' E 029°32'0 0.0
2015-Feb-23 11:31N 40°46' E 029°32'0 0.0
2015-Feb-23 10:19N 40°46' E 029°32'0 0.0
2015-Feb-23 09:31N 40°46' E 029°32'6 6.0
2015-Feb-23 08:32N 40°44' E 029°25'1211.9
2015-Feb-23 07:33N 40°44' E 029°09'23116.0
2015-Feb-22 17:05N 38°35' E 024°60'4221.5
2015-Feb-22 15:09N 37°57' E 024°38'1521.2
2015-Feb-22 14:27N 37°43' E 024°33'1920.9
2015-Feb-22 13:32N 37°27' E 024°19'47419.7
2015-Feb-21 13:33N 36°30' E 014°31'2020.6
2015-Feb-21 12:33N 36°36' E 014°07'2120.5
2015-Feb-21 11:33N 36°42' E 013°42'30120.6
2015-Feb-20 21:00N 37°30' E 007°30'49520.6 140 / 281016.010.8 0.520.0-2.515.0
2015-Feb-19 21:00N 36°18' W 002°42'12419.2 070 / 351024.010.8 1.515.0 4.214.0
2015-Feb-19 14:33N 35°60' W 005°14'15118.7
2015-Feb-19 06:28N 36°21' W 008°20'2320.8
2015-Feb-19 05:23N 36°27' W 008°47'7118.6
2015-Feb-19 01:33N 37°22' W 009°44'2221.7
2015-Feb-19 00:33N 37°43' W 009°50'2321.6
2015-Feb-18 23:28N 38°06' W 009°57'2821.8
2015-Feb-18 22:10N 38°33' W 010°04'1321.5
2015-Feb-18 21:33N 38°47' W 010°06'81118.3
2015-Feb-17 01:07N 50°26' W 000°29'1818.6
2015-Feb-17 00:10N 50°31' W 000°02'1218.4
2015-Feb-16 23:30N 50°35' E 000°16'1617.3
2015-Feb-16 22:33N 50°41' E 000°40'1716.5
2015-Feb-16 21:33N 50°51' E 001°01'814.0
2015-Feb-16 21:00N 50°54' E 001°12'919.1 190 / 131018.0 2.2 0.511.0 3.0 7.0
2015-Feb-16 20:31N 51°01' E 001°21'1717.2
2015-Feb-16 19:33N 51°11' E 001°41'1818.2
2015-Feb-16 18:33N 51°25' E 002°02'1717.2
2015-Feb-16 17:33N 51°22' E 002°29'1514.7
2015-Feb-16 16:33N 51°25' E 002°52'1514.9
2015-Feb-16 15:33N 51°25' E 003°16'1313.3
2015-Feb-16 14:33N 51°26' E 003°37'1211.8
2015-Feb-16 13:33N 51°22' E 003°55'8 8.3
2015-Feb-16 12:33N 51°22' E 004°08'  

Dump ship's entire track history